createdAt,value
2018-12-31T00:01:43.670Z,18.50
2018-12-31T00:04:12.876Z,20.90
2018-12-31T00:06:42.051Z,19.53
2018-12-31T00:09:11.253Z,20.33
2018-12-31T00:11:40.580Z,17.97
2018-12-31T00:14:09.840Z,18.00
2018-12-31T00:16:39.100Z,19.40
2018-12-31T00:19:08.269Z,18.33
2018-12-31T00:21:37.526Z,19.20
2018-12-31T00:24:06.844Z,20.47
2018-12-31T00:26:36.027Z,17.67
2018-12-31T00:29:05.266Z,16.40
2018-12-31T00:31:34.445Z,16.43
2018-12-31T00:34:03.634Z,17.90
2018-12-31T00:36:32.818Z,20.80
2018-12-31T00:39:02.021Z,18.93
2018-12-31T00:41:31.371Z,16.27
2018-12-31T00:44:00.603Z,19.00
2018-12-31T00:46:29.754Z,16.10
2018-12-31T00:48:58.963Z,16.30
2018-12-31T00:51:28.347Z,16.87
2018-12-31T00:53:57.616Z,18.97
2018-12-31T00:56:26.908Z,18.23
2018-12-31T00:58:56.071Z,18.33
2018-12-31T01:01:25.267Z,18.67
2018-12-31T01:03:54.439Z,20.17
2018-12-31T01:06:23.591Z,18.57
2018-12-31T01:08:52.772Z,18.17
2018-12-31T01:11:22.019Z,19.73
2018-12-31T01:13:51.262Z,13.60
2018-12-31T01:16:20.489Z,15.10
2018-12-31T01:18:49.677Z,18.90
2018-12-31T01:21:18.973Z,16.83
2018-12-31T01:23:48.242Z,19.10
2018-12-31T01:26:17.427Z,14.87
2018-12-31T01:28:46.593Z,14.50
2018-12-31T01:31:15.911Z,16.93
2018-12-31T01:33:45.086Z,16.93
2018-12-31T01:36:14.235Z,16.53
2018-12-31T01:38:43.383Z,18.60
2018-12-31T01:41:12.582Z,17.10
2018-12-31T01:43:41.853Z,14.90
2018-12-31T01:46:11.060Z,14.47
2018-12-31T01:48:40.306Z,14.83
2018-12-31T01:51:11.515Z,15.60
2018-12-31T01:53:40.423Z,15.77
2018-12-31T01:56:09.598Z,17.13
2018-12-31T01:58:38.776Z,13.13
2018-12-31T02:01:08.022Z,15.87
2018-12-31T02:03:37.249Z,14.27
2018-12-31T02:06:06.427Z,15.70
2018-12-31T02:08:35.648Z,15.93
2018-12-31T02:11:04.914Z,14.53
2018-12-31T02:13:34.054Z,15.57
2018-12-31T02:16:03.322Z,17.97
2018-12-31T02:18:32.526Z,16.00
2018-12-31T02:21:01.741Z,13.93
2018-12-31T02:23:30.862Z,14.10
2018-12-31T02:26:00.048Z,18.40
2018-12-31T02:28:29.265Z,18.37
2018-12-31T02:30:59.656Z,14.80
2018-12-31T02:33:28.862Z,15.50
2018-12-31T02:35:58.017Z,16.00
2018-12-31T02:38:27.266Z,14.10
2018-12-31T02:40:56.389Z,13.20
2018-12-31T02:43:25.545Z,16.03
2018-12-31T02:45:54.681Z,13.30
2018-12-31T02:48:23.882Z,16.90
2018-12-31T02:50:53.149Z,14.73
2018-12-31T02:53:22.372Z,15.27
2018-12-31T02:55:51.589Z,14.60
2018-12-31T02:58:20.732Z,16.47
2018-12-31T03:00:49.911Z,19.80
2018-12-31T03:03:19.153Z,15.00
2018-12-31T03:05:48.314Z,15.37
2018-12-31T03:08:17.543Z,17.27
2018-12-31T03:10:46.699Z,16.90
2018-12-31T03:13:15.936Z,17.00
2018-12-31T03:15:45.196Z,20.33
2018-12-31T03:18:14.447Z,17.43
2018-12-31T03:20:43.614Z,16.13
2018-12-31T03:23:12.870Z,18.37
2018-12-31T03:25:42.159Z,19.63
2018-12-31T03:28:11.286Z,16.50
2018-12-31T03:30:40.540Z,18.47
2018-12-31T03:33:09.761Z,16.60
2018-12-31T03:35:38.929Z,17.07
2018-12-31T03:38:08.078Z,15.10
2018-12-31T03:40:37.310Z,15.07
2018-12-31T03:43:06.451Z,17.43
2018-12-31T03:45:35.695Z,16.67
2018-12-31T03:48:05.022Z,17.50
2018-12-31T03:50:34.223Z,17.97
2018-12-31T03:53:03.373Z,18.90
2018-12-31T03:55:32.591Z,19.33
2018-12-31T03:58:03.282Z,17.50
2018-12-31T04:00:32.455Z,18.87
2018-12-31T04:03:01.697Z,19.90
2018-12-31T04:05:30.931Z,15.83
2018-12-31T04:08:00.057Z,19.47
2018-12-31T04:10:29.348Z,21.50
2018-12-31T04:12:58.531Z,17.03
2018-12-31T04:15:27.731Z,16.87
2018-12-31T04:17:57.008Z,20.47
2018-12-31T04:20:26.247Z,20.67
2018-12-31T04:22:55.435Z,19.67
2018-12-31T04:25:24.761Z,20.90
2018-12-31T04:27:54.070Z,18.67
2018-12-31T04:30:23.382Z,20.57
2018-12-31T04:32:52.689Z,23.20
2018-12-31T04:35:21.935Z,19.20
2018-12-31T04:37:51.198Z,18.63
2018-12-31T04:40:20.487Z,20.60
2018-12-31T04:42:49.654Z,21.60
2018-12-31T04:45:18.900Z,22.13
2018-12-31T04:47:48.032Z,20.23
2018-12-31T04:50:17.220Z,20.07
2018-12-31T04:52:46.370Z,24.30
2018-12-31T04:55:15.532Z,39.10
2018-12-31T04:57:44.776Z,21.60
2018-12-31T05:00:14.015Z,29.27
2018-12-31T05:02:43.154Z,21.03
2018-12-31T05:05:12.328Z,19.23
2018-12-31T05:07:41.482Z,20.70
2018-12-31T05:10:10.724Z,17.43
2018-12-31T05:12:39.878Z,21.63
2018-12-31T05:15:09.120Z,22.67
2018-12-31T05:17:38.419Z,20.33
2018-12-31T05:20:07.678Z,18.47
2018-12-31T05:22:37.000Z,20.63
2018-12-31T05:25:06.236Z,20.87
2018-12-31T05:27:35.558Z,23.10
2018-12-31T05:30:04.815Z,21.40
2018-12-31T05:32:34.018Z,19.67
2018-12-31T05:35:03.204Z,17.17
2018-12-31T05:37:32.501Z,22.97
2018-12-31T05:40:01.663Z,20.27
2018-12-31T05:42:30.884Z,19.70
2018-12-31T05:45:00.121Z,21.63
2018-12-31T05:47:29.355Z,24.07
2018-12-31T05:49:58.555Z,27.37
2018-12-31T05:52:27.709Z,22.63
2018-12-31T05:54:56.916Z,24.23
2018-12-31T05:57:26.121Z,24.80
2018-12-31T05:59:55.354Z,23.50
2018-12-31T06:02:24.591Z,25.33
2018-12-31T06:04:54.367Z,23.23
2018-12-31T06:07:23.515Z,22.13
2018-12-31T06:09:52.763Z,20.90
2018-12-31T06:12:21.923Z,21.53
2018-12-31T06:14:51.179Z,24.60
2018-12-31T06:17:20.402Z,28.90
2018-12-31T06:19:49.707Z,28.67
2018-12-31T06:22:18.915Z,28.57
2018-12-31T06:24:48.207Z,23.73
2018-12-31T06:27:17.419Z,22.80
2018-12-31T06:29:46.823Z,23.87
2018-12-31T06:32:15.987Z,22.27
2018-12-31T06:34:45.181Z,29.23
2018-12-31T06:37:14.412Z,28.43
2018-12-31T06:39:43.731Z,28.53
2018-12-31T06:42:12.902Z,27.97
2018-12-31T06:44:42.245Z,26.33
2018-12-31T06:47:11.409Z,27.30
2018-12-31T06:49:40.681Z,23.93
2018-12-31T06:52:09.885Z,26.00
2018-12-31T06:54:39.156Z,25.07
2018-12-31T06:57:08.307Z,25.57
2018-12-31T06:59:37.548Z,23.63
2018-12-31T07:02:06.705Z,22.83
2018-12-31T07:04:35.851Z,24.00
2018-12-31T07:07:05.072Z,29.90
2018-12-31T07:09:34.388Z,24.17
2018-12-31T07:12:03.536Z,32.67
2018-12-31T07:14:32.799Z,24.57
2018-12-31T07:17:02.054Z,27.43
2018-12-31T07:19:31.320Z,25.03
2018-12-31T07:22:00.718Z,27.80
2018-12-31T07:24:29.881Z,45.87
2018-12-31T07:26:59.046Z,27.30
2018-12-31T07:29:28.357Z,24.83
2018-12-31T07:31:57.541Z,24.17
2018-12-31T07:34:26.694Z,26.60
2018-12-31T07:36:55.936Z,25.77
2018-12-31T07:39:25.106Z,22.03
2018-12-31T07:41:54.252Z,23.77
2018-12-31T07:44:23.436Z,21.20
2018-12-31T07:46:52.686Z,18.13
2018-12-31T07:49:21.992Z,20.20
2018-12-31T07:51:51.136Z,19.83
2018-12-31T07:54:20.427Z,21.50
2018-12-31T07:56:49.587Z,19.70
2018-12-31T07:59:18.924Z,20.43
2018-12-31T08:01:48.186Z,20.27
2018-12-31T08:04:17.365Z,18.63
2018-12-31T08:06:46.632Z,20.43
2018-12-31T08:09:15.919Z,23.90
2018-12-31T08:11:45.212Z,19.13
2018-12-31T08:14:14.474Z,22.60
2018-12-31T08:16:43.705Z,20.17
2018-12-31T08:19:12.902Z,20.07
2018-12-31T08:21:42.208Z,20.47
2018-12-31T08:24:11.502Z,19.63
2018-12-31T08:26:40.694Z,20.40
2018-12-31T08:29:09.816Z,18.27
2018-12-31T08:31:39.069Z,16.87
2018-12-31T08:34:08.322Z,17.47
2018-12-31T08:36:37.485Z,21.33
2018-12-31T08:39:08.205Z,19.40
2018-12-31T08:41:37.437Z,20.83
2018-12-31T08:44:06.617Z,15.40
2018-12-31T08:46:35.836Z,14.80
2018-12-31T08:49:05.075Z,17.47
2018-12-31T08:51:34.307Z,15.93
2018-12-31T08:54:03.532Z,18.67
2018-12-31T08:56:32.713Z,15.57
2018-12-31T08:59:02.009Z,16.20
2018-12-31T09:01:31.250Z,15.93
2018-12-31T09:04:00.574Z,16.53
2018-12-31T09:06:29.798Z,14.97
2018-12-31T09:08:59.028Z,18.00
2018-12-31T09:11:28.283Z,15.77
2018-12-31T09:13:57.474Z,15.03
2018-12-31T09:16:26.716Z,19.97
2018-12-31T09:18:55.860Z,17.07
2018-12-31T09:21:25.023Z,21.10
2018-12-31T09:23:54.373Z,54.13
2018-12-31T09:26:23.565Z,28.80
2018-12-31T09:28:52.698Z,54.90
2018-12-31T09:31:21.886Z,19.27
2018-12-31T09:33:51.094Z,71.60
2018-12-31T09:36:20.246Z,37.47
2018-12-31T09:38:49.395Z,21.40
2018-12-31T09:41:18.564Z,44.13
2018-12-31T09:43:47.714Z,15.60
2018-12-31T09:46:16.966Z,60.87
2018-12-31T09:48:46.185Z,49.77
2018-12-31T09:51:15.376Z,26.50
2018-12-31T09:53:44.572Z,16.60
2018-12-31T09:56:13.754Z,14.13
2018-12-31T09:58:42.930Z,41.93
2018-12-31T10:01:12.114Z,16.10
2018-12-31T10:03:41.366Z,41.50
2018-12-31T10:06:10.658Z,18.90
2018-12-31T10:08:40.245Z,29.87
2018-12-31T10:11:09.382Z,15.87
2018-12-31T10:13:38.583Z,15.97
2018-12-31T10:16:07.762Z,17.07
2018-12-31T10:18:37.030Z,25.50
2018-12-31T10:21:06.331Z,13.33
2018-12-31T10:23:35.572Z,52.13
2018-12-31T10:26:05.006Z,16.37
2018-12-31T10:28:34.240Z,13.57
2018-12-31T10:31:03.407Z,22.67
2018-12-31T10:33:32.682Z,13.90
2018-12-31T10:36:01.867Z,52.30
2018-12-31T10:38:31.026Z,34.73
2018-12-31T10:41:00.240Z,28.93
2018-12-31T10:43:29.457Z,34.33
2018-12-31T10:45:58.640Z,139.97
2018-12-31T10:48:27.811Z,13.33
2018-12-31T10:50:56.981Z,16.13
2018-12-31T10:53:26.138Z,12.33
2018-12-31T10:55:55.341Z,23.87
2018-12-31T10:58:24.540Z,17.13
2018-12-31T11:00:53.801Z,48.93
2018-12-31T11:03:23.918Z,72.40
2018-12-31T11:05:53.216Z,21.40
2018-12-31T11:08:22.500Z,19.23
2018-12-31T11:10:51.734Z,25.53
2018-12-31T11:13:20.990Z,15.33
2018-12-31T11:15:50.342Z,10.37
2018-12-31T11:18:19.683Z,11.10
2018-12-31T11:20:49.097Z,101.80
2018-12-31T11:23:18.384Z,65.40
2018-12-31T11:25:47.679Z,41.43
2018-12-31T11:28:16.965Z,37.27
2018-12-31T11:30:46.140Z,56.30
2018-12-31T11:33:15.408Z,27.93
2018-12-31T11:35:44.596Z,55.17
2018-12-31T11:38:13.893Z,23.57
2018-12-31T11:40:43.126Z,43.50
2018-12-31T11:43:12.413Z,55.97
2018-12-31T11:45:41.682Z,15.53
2018-12-31T11:48:10.844Z,13.23
2018-12-31T11:50:39.987Z,11.40
2018-12-31T11:53:09.152Z,17.87
2018-12-31T11:55:38.438Z,17.20
2018-12-31T11:58:07.699Z,21.83
2018-12-31T12:00:36.956Z,9.87
2018-12-31T12:03:06.177Z,10.63
2018-12-31T12:05:35.375Z,15.20
2018-12-31T12:08:04.637Z,33.30
2018-12-31T12:10:33.835Z,9.10
2018-12-31T12:13:03.103Z,84.50
2018-12-31T12:15:32.394Z,58.13
2018-12-31T12:18:02.026Z,77.13
2018-12-31T12:20:31.345Z,20.03
2018-12-31T12:23:00.646Z,13.20
2018-12-31T12:25:29.952Z,15.57
2018-12-31T12:27:59.154Z,9.57
2018-12-31T12:30:28.579Z,7.80
2018-12-31T12:32:57.794Z,8.30
2018-12-31T12:35:26.982Z,8.13
2018-12-31T12:37:56.171Z,8.03
2018-12-31T12:40:25.452Z,7.90
2018-12-31T12:42:54.768Z,7.67
2018-12-31T12:45:24.105Z,12.70
2018-12-31T12:47:53.392Z,8.10
2018-12-31T12:50:22.565Z,8.90
2018-12-31T12:52:51.863Z,8.43
2018-12-31T12:55:21.178Z,9.27
2018-12-31T12:57:50.381Z,8.73
2018-12-31T13:00:19.577Z,9.43
2018-12-31T13:02:48.917Z,9.37
2018-12-31T13:05:18.175Z,8.73
2018-12-31T13:07:47.367Z,8.00
2018-12-31T13:10:16.708Z,8.77
2018-12-31T13:12:45.958Z,9.73
2018-12-31T13:15:15.482Z,8.07
2018-12-31T13:17:45.124Z,8.37
2018-12-31T13:20:14.476Z,46.87
2018-12-31T13:22:43.658Z,8.87
2018-12-31T13:25:12.936Z,9.03
2018-12-31T13:27:42.244Z,11.83
2018-12-31T13:30:11.820Z,10.80
2018-12-31T13:32:41.116Z,9.27
2018-12-31T13:35:10.302Z,10.47
2018-12-31T13:37:39.648Z,8.83
2018-12-31T13:40:08.877Z,9.70
2018-12-31T13:42:38.425Z,10.87
2018-12-31T13:45:07.800Z,8.93
2018-12-31T13:47:37.172Z,8.90
2018-12-31T13:50:06.489Z,9.70
2018-12-31T13:52:35.808Z,8.97
2018-12-31T13:55:05.380Z,9.73
2018-12-31T13:57:34.606Z,8.60
2018-12-31T14:00:03.902Z,9.93
2018-12-31T14:02:33.258Z,10.57
2018-12-31T14:05:02.478Z,9.97
2018-12-31T14:07:31.876Z,11.13
2018-12-31T14:10:01.158Z,10.53
2018-12-31T14:12:30.421Z,10.33
2018-12-31T14:14:59.616Z,12.03
2018-12-31T14:17:28.826Z,11.30
2018-12-31T14:19:58.226Z,12.33
2018-12-31T14:22:27.591Z,10.83
2018-12-31T14:24:56.884Z,10.53
2018-12-31T14:27:26.151Z,12.33
2018-12-31T14:29:55.612Z,10.83
2018-12-31T14:32:24.887Z,11.70
2018-12-31T14:34:54.164Z,11.27
2018-12-31T14:37:23.407Z,10.53
2018-12-31T14:39:52.699Z,20.27
2018-12-31T14:42:22.425Z,11.17
2018-12-31T14:44:51.764Z,10.57
2018-12-31T14:47:21.019Z,11.53
2018-12-31T14:49:50.314Z,15.97
2018-12-31T14:52:19.950Z,28.87
2018-12-31T14:54:49.594Z,15.93
2018-12-31T14:57:18.862Z,13.37
2018-12-31T14:59:48.233Z,12.37
2018-12-31T15:02:17.518Z,111.77
2018-12-31T15:04:46.749Z,24.80
2018-12-31T15:07:16.113Z,16.27
2018-12-31T15:09:45.466Z,11.73
2018-12-31T15:12:14.788Z,13.03
2018-12-31T15:14:43.965Z,11.07
2018-12-31T15:17:13.203Z,12.97
2018-12-31T15:19:42.378Z,16.90
2018-12-31T15:22:11.614Z,17.10
2018-12-31T15:24:40.774Z,13.27
2018-12-31T15:27:10.012Z,13.07
2018-12-31T15:29:39.312Z,14.00
2018-12-31T15:32:08.666Z,13.17
2018-12-31T15:34:37.848Z,16.50
2018-12-31T15:37:07.121Z,14.53
2018-12-31T15:39:36.370Z,14.23
2018-12-31T15:42:05.618Z,14.57
2018-12-31T15:44:34.881Z,15.07
2018-12-31T15:47:04.184Z,16.50
2018-12-31T15:49:33.433Z,16.10
2018-12-31T15:52:02.872Z,14.87
2018-12-31T15:54:32.078Z,14.57
2018-12-31T15:57:01.378Z,16.37
2018-12-31T15:59:30.675Z,15.13
2018-12-31T16:01:59.983Z,14.60
2018-12-31T16:04:29.172Z,15.93
2018-12-31T16:06:58.462Z,15.97
2018-12-31T16:09:27.682Z,14.60
2018-12-31T16:11:56.894Z,14.10
2018-12-31T16:14:26.192Z,14.60
2018-12-31T16:16:55.413Z,15.13
2018-12-31T16:19:24.728Z,19.87
2018-12-31T16:21:54.026Z,14.47
2018-12-31T16:24:23.280Z,17.40
2018-12-31T16:26:52.528Z,15.27
2018-12-31T16:29:21.810Z,16.83
2018-12-31T16:31:51.118Z,17.27
2018-12-31T16:34:20.337Z,15.70
2018-12-31T16:36:49.663Z,16.13
2018-12-31T16:39:18.970Z,18.23
2018-12-31T16:42:07.360Z,18.82
2018-12-31T16:44:37.479Z,18.07
2018-12-31T16:47:06.818Z,15.07
2018-12-31T16:49:36.078Z,16.73
2018-12-31T16:52:05.390Z,16.33
2018-12-31T16:54:34.973Z,20.30
2018-12-31T16:57:05.237Z,14.43
2018-12-31T16:59:34.694Z,16.50
2018-12-31T17:02:03.975Z,16.97
2018-12-31T17:04:33.162Z,14.93
2018-12-31T17:07:02.311Z,18.33
2018-12-31T17:09:31.618Z,15.67
2018-12-31T17:12:00.920Z,17.00
2018-12-31T17:14:30.158Z,19.57
2018-12-31T17:16:59.317Z,20.73
2018-12-31T17:19:28.954Z,33.67
2018-12-31T17:21:58.168Z,27.33
2018-12-31T17:24:27.603Z,28.17
2018-12-31T17:26:56.816Z,30.80
2018-12-31T17:29:26.098Z,24.07
2018-12-31T17:31:55.568Z,27.60
2018-12-31T17:34:24.830Z,23.03
2018-12-31T17:36:54.041Z,22.67
2018-12-31T17:39:23.401Z,26.77
2018-12-31T17:41:52.784Z,33.20
2018-12-31T17:44:22.331Z,30.57
2018-12-31T17:46:51.694Z,31.50
2018-12-31T17:49:20.997Z,28.13
2018-12-31T17:51:55.778Z,24.53
2018-12-31T17:54:21.239Z,23.40
2018-12-31T17:56:50.572Z,24.13
2018-12-31T17:59:19.756Z,21.03
2018-12-31T18:01:49.353Z,21.23
2018-12-31T18:04:18.686Z,22.47
2018-12-31T18:06:47.981Z,25.70
2018-12-31T18:09:17.226Z,25.10
2018-12-31T18:11:46.578Z,26.30
2018-12-31T18:14:15.829Z,27.17
2018-12-31T18:16:45.223Z,27.33
2018-12-31T18:19:14.547Z,25.60
2018-12-31T18:21:43.864Z,30.23
2018-12-31T18:24:13.017Z,26.00
2018-12-31T18:26:42.270Z,29.10
2018-12-31T18:29:11.627Z,26.53
2018-12-31T18:31:40.859Z,25.73
2018-12-31T18:34:10.017Z,33.30
2018-12-31T18:36:39.175Z,30.30
2018-12-31T18:39:08.832Z,34.07
2018-12-31T18:41:38.147Z,36.00
2018-12-31T18:44:07.477Z,40.47
2018-12-31T18:46:37.285Z,59.27
2018-12-31T18:49:06.711Z,64.57
2018-12-31T18:51:35.927Z,69.00
2018-12-31T18:54:05.310Z,70.92
2018-12-31T18:56:34.624Z,77.93
2018-12-31T18:59:03.959Z,205.93
2018-12-31T19:01:33.253Z,43.43
2018-12-31T19:04:02.506Z,42.97
2018-12-31T19:06:31.810Z,105.47
2018-12-31T19:09:01.116Z,270.30
2018-12-31T19:11:30.565Z,567.60
2018-12-31T19:13:59.851Z,99.50
2018-12-31T19:16:30.618Z,80.33
2018-12-31T19:19:00.155Z,122.93
2018-12-31T19:21:29.582Z,482.77
2018-12-31T19:23:58.929Z,126.77
2018-12-31T19:26:28.408Z,265.13
2018-12-31T19:28:57.704Z,54.03
2018-12-31T19:31:27.079Z,126.13
2018-12-31T19:33:56.375Z,332.40
2018-12-31T19:36:25.711Z,86.00
2018-12-31T19:38:54.902Z,77.80
2018-12-31T19:41:24.179Z,35.90
2018-12-31T19:43:53.538Z,34.13
2018-12-31T19:46:22.733Z,39.10
2018-12-31T19:48:52.031Z,39.90
2018-12-31T19:51:21.316Z,37.00
2018-12-31T19:53:50.658Z,33.00
2018-12-31T19:56:20.016Z,36.97
2018-12-31T19:58:49.234Z,35.53
2018-12-31T20:01:18.534Z,43.10
2018-12-31T20:03:47.841Z,46.90
2018-12-31T20:06:17.104Z,48.10
2018-12-31T20:08:46.433Z,77.60
2018-12-31T20:11:15.771Z,415.93
2018-12-31T20:13:45.070Z,117.30
2018-12-31T20:16:14.411Z,45.60
2018-12-31T20:18:43.672Z,165.30
2018-12-31T20:21:12.912Z,127.77
2018-12-31T20:23:42.321Z,153.40
2018-12-31T20:26:11.799Z,94.70
2018-12-31T20:28:41.100Z,69.73
2018-12-31T20:31:10.440Z,35.80
2018-12-31T20:33:39.791Z,129.17
2018-12-31T20:36:09.145Z,131.93
2018-12-31T20:38:38.836Z,38.70
2018-12-31T20:41:08.153Z,109.73
2018-12-31T20:43:37.443Z,49.53
2018-12-31T20:46:06.799Z,42.10
2018-12-31T20:48:36.193Z,38.43
2018-12-31T20:51:05.459Z,411.83
2018-12-31T20:53:34.681Z,135.63
2018-12-31T20:56:03.947Z,283.10
2018-12-31T20:58:34.836Z,48.00
2018-12-31T21:01:04.212Z,270.37
2018-12-31T21:03:33.556Z,74.60
2018-12-31T21:06:02.781Z,460.03
2018-12-31T21:08:32.072Z,609.80
2018-12-31T21:11:01.495Z,233.40
2018-12-31T21:13:30.790Z,101.80
2018-12-31T21:16:00.184Z,150.70
2018-12-31T21:18:29.533Z,67.03
2018-12-31T21:20:58.925Z,62.80
2018-12-31T21:23:28.205Z,42.60
2018-12-31T21:25:58.583Z,54.80
2018-12-31T21:28:28.034Z,62.43
2018-12-31T21:30:57.536Z,90.03
2018-12-31T21:33:26.860Z,62.70
2018-12-31T21:35:56.265Z,71.57
2018-12-31T21:38:25.568Z,122.50
2018-12-31T21:40:54.954Z,60.00
2018-12-31T21:43:24.433Z,63.33
2018-12-31T21:45:53.603Z,77.47
2018-12-31T21:48:22.903Z,52.57
2018-12-31T21:50:52.163Z,84.13
2018-12-31T21:53:21.459Z,206.13
2018-12-31T21:55:51.172Z,81.20
2018-12-31T21:58:20.513Z,60.37
2018-12-31T22:00:49.819Z,205.20
2018-12-31T22:03:19.069Z,200.83
2018-12-31T22:05:48.475Z,128.57
2018-12-31T22:08:18.079Z,915.53
2018-12-31T22:10:47.410Z,69.93
2018-12-31T22:13:16.703Z,82.50
2018-12-31T22:15:46.022Z,95.97
2018-12-31T22:18:15.306Z,40.30
2018-12-31T22:20:44.867Z,44.37
2018-12-31T22:23:14.215Z,56.30
2018-12-31T22:25:43.449Z,60.27
2018-12-31T22:28:12.665Z,69.20
2018-12-31T22:30:41.945Z,95.33
2018-12-31T22:33:11.273Z,64.10
2018-12-31T22:35:40.536Z,214.43
2018-12-31T22:38:09.971Z,229.53
2018-12-31T22:40:39.207Z,46.13
2018-12-31T22:43:09.458Z,53.93
2018-12-31T22:45:38.894Z,54.83
2018-12-31T22:48:08.163Z,65.53
2018-12-31T22:50:37.450Z,47.83
2018-12-31T22:53:06.708Z,46.43
2018-12-31T22:55:35.937Z,119.13
2018-12-31T22:58:05.533Z,55.10
2018-12-31T23:00:36.708Z,136.50
2018-12-31T23:03:06.129Z,685.10
2018-12-31T23:05:37.347Z,584.87
2018-12-31T23:08:06.699Z,596.30
2018-12-31T23:10:36.188Z,1999.90
2018-12-31T23:13:05.536Z,863.03
2018-12-31T23:15:36.799Z,506.47
2018-12-31T23:18:06.270Z,478.17
2018-12-31T23:20:35.625Z,352.03
2018-12-31T23:23:04.967Z,352.10
2018-12-31T23:25:34.206Z,257.17
2018-12-31T23:28:03.500Z,254.10
2018-12-31T23:30:32.862Z,223.93
2018-12-31T23:33:02.120Z,422.83
2018-12-31T23:35:31.610Z,160.93
2018-12-31T23:38:00.786Z,171.43
2018-12-31T23:40:30.085Z,117.90
2018-12-31T23:43:06.130Z,112.20
2018-12-31T23:45:30.351Z,99.13
2018-12-31T23:47:59.599Z,71.60
2018-12-31T23:50:28.836Z,98.87
2018-12-31T23:52:58.040Z,159.90
2018-12-31T23:55:27.443Z,84.03
2018-12-31T23:57:56.810Z,73.73
